Time;durP1;ratioP1;P1;durP2;ratioP2;P2;SDS_P1;SDS_P2;PMS_P1;PMS_P2;Temp;Humidity;BMP_temperature;BMP_pressure;BME280_temperature;BME280_humidity;BME280_pressure;Samples;Min_cycle;Max_cycle;Signal;HPM_P1;HPM_P2
2021/11/25 00:00:34;;;;;;;5.93;5.10;;;;;;;;;;5020790;28;20534;-53
2021/11/25 00:03:00;;;;;;;5.50;4.97;;;;;;;;;;5018857;28;20213;-54
2021/11/25 00:05:27;;;;;;;5.83;4.83;;;;;;;;;;5022306;28;20185;-52
2021/11/25 00:07:53;;;;;;;5.87;5.27;;;;;;;;;;5002290;28;20321;-55
2021/11/25 00:10:21;;;;;;;6.83;5.23;;;;;;;;;;5002284;28;20193;-53
2021/11/25 00:12:48;;;;;;;5.37;4.87;;;;;;;;;;5021436;28;20182;-53
2021/11/25 00:15:14;;;;;;;6.57;5.03;;;;;;;;;;5020249;28;20225;-53
2021/11/25 00:17:40;;;;;;;5.37;4.87;;;;;;;;;;5004035;28;20886;-55
2021/11/25 00:20:09;;;;;;;4.93;4.43;;;;;;;;;;5022731;28;20185;-52
2021/11/25 00:22:35;;;;;;;6.30;4.83;;;;;;;;;;5020390;28;20207;-52
2021/11/25 00:25:01;;;;;;;5.30;4.50;;;;;;;;;;5020663;28;20640;-54
2021/11/25 00:27:27;;;;;;;5.80;4.90;;;;;;;;;;5002037;28;20557;-53
2021/11/25 00:29:53;;;;;;;5.40;4.90;;;;;;;;;;5020654;28;20541;-52
2021/11/25 00:32:19;;;;;;;5.27;4.77;;;;;;;;;;5001855;28;20181;-55
2021/11/25 00:34:48;;;;;;;5.00;4.47;;;;;;;;;;5011052;28;20182;-53
2021/11/25 00:37:14;;;;;;;5.43;4.93;;;;;;;;;;5002867;28;20188;-52
2021/11/25 00:39:41;;;;;;;5.07;4.57;;;;;;;;;;5002349;28;20649;-56
2021/11/25 00:42:07;;;;;;;5.47;4.90;;;;;;;;;;5021238;28;20189;-53
2021/11/25 00:44:37;;;;;;;5.43;4.60;;;;;;;;;;5004122;28;20178;-56
2021/11/25 00:47:03;;;;;;;5.50;4.50;;;;;;;;;;5020372;28;20181;-53
2021/11/25 00:49:29;;;;;;;5.37;4.03;;;;;;;;;;5005526;28;20217;-54
2021/11/25 00:51:55;;;;;;;4.53;4.07;;;;;;;;;;5020791;28;20192;-53
2021/11/25 00:54:21;;;;;;;4.87;4.37;;;;;;;;;;5008898;28;20236;-55
2021/11/25 00:56:48;;;;;;;5.23;4.40;;;;;;;;;;5003343;28;20210;-52
2021/11/25 00:59:14;;;;;;;5.23;4.73;;;;;;;;;;5004873;28;20240;-53
2021/11/25 01:01:40;;;;;;;5.63;5.03;;;;;;;;;;4999155;28;20190;-53
2021/11/25 01:04:06;;;;;;;5.60;4.37;;;;;;;;;;4986910;28;20265;-53
2021/11/25 01:06:33;;;;;;;5.60;4.90;;;;;;;;;;5001816;28;20193;-54
2021/11/25 01:08:59;;;;;;;5.17;3.90;;;;;;;;;;5002251;28;20254;-53
2021/11/25 01:11:26;;;;;;;5.13;4.50;;;;;;;;;;5020458;28;20174;-53
2021/11/25 01:13:53;;;;;;;4.63;4.13;;;;;;;;;;5021872;28;20189;-55
2021/11/25 01:16:19;;;;;;;7.97;4.97;;;;;;;;;;5018092;28;20235;-53
2021/11/25 01:18:45;;;;;;;5.97;4.87;;;;;;;;;;5022378;28;20244;-53
2021/11/25 01:21:11;;;;;;;4.87;4.30;;;;;;;;;;5001443;28;20192;-55
2021/11/25 01:23:38;;;;;;;4.73;4.30;;;;;;;;;;5020436;28;20213;-52
2021/11/25 01:26:04;;;;;;;5.23;4.33;;;;;;;;;;5003165;28;20190;-52
2021/11/25 01:28:31;;;;;;;5.27;4.30;;;;;;;;;;5020278;28;20188;-53
2021/11/25 01:31:00;;;;;;;5.50;4.47;;;;;;;;;;5021124;28;20190;-55
2021/11/25 01:33:27;;;;;;;5.33;4.63;;;;;;;;;;5021987;28;20186;-54
2021/11/25 01:35:54;;;;;;;5.00;4.50;;;;;;;;;;5006259;28;20181;-53
2021/11/25 01:38:20;;;;;;;4.40;4.00;;;;;;;;;;5005432;28;20213;-52
2021/11/25 01:40:47;;;;;;;5.00;4.50;;;;;;;;;;5023310;28;20193;-51
2021/11/25 01:43:13;;;;;;;4.70;4.10;;;;;;;;;;5005071;28;20260;-52
2021/11/25 01:45:40;;;;;;;5.67;3.87;;;;;;;;;;5024446;28;20537;-53
2021/11/25 01:48:06;;;;;;;5.10;4.37;;;;;;;;;;4987786;28;20228;-54
2021/11/25 01:50:33;;;;;;;5.00;4.20;;;;;;;;;;5025544;28;20672;-53
2021/11/25 01:52:59;;;;;;;5.47;4.23;;;;;;;;;;5004589;28;20200;-52
2021/11/25 01:55:26;;;;;;;4.80;4.30;;;;;;;;;;5022820;28;20186;-51
2021/11/25 01:58:01;;;;;;;4.70;3.87;;;;;;;;;;5022115;28;20181;-53
2021/11/25 02:00:32;;;;;;;5.73;4.73;;;;;;;;;;5005655;28;20185;-55
2021/11/25 02:03:00;;;;;;;4.63;4.10;;;;;;;;;;5020428;28;20233;-53
2021/11/25 02:05:26;;;;;;;4.47;3.63;;;;;;;;;;5021876;28;20181;-52
2021/11/25 02:07:53;;;;;;;4.97;3.67;;;;;;;;;;5004434;28;21247;-52
2021/11/25 02:10:19;;;;;;;5.77;4.50;;;;;;;;;;5002932;28;20182;-52
2021/11/25 02:12:45;;;;;;;4.83;4.20;;;;;;;;;;5022676;28;20280;-52
2021/11/25 02:15:12;;;;;;;4.53;4.13;;;;;;;;;;5023143;28;20178;-52
2021/11/25 02:17:38;;;;;;;4.63;4.20;;;;;;;;;;5024081;28;20320;-52
2021/11/25 02:20:05;;;;;;;4.57;3.73;;;;;;;;;;5024584;28;20515;-51
2021/11/25 02:22:33;;;;;;;6.67;4.27;;;;;;;;;;5022496;28;20649;-52
2021/11/25 02:24:59;;;;;;;4.87;4.37;;;;;;;;;;5022296;28;20236;-53
2021/11/25 02:27:25;;;;;;;5.10;4.60;;;;;;;;;;5023422;28;20583;-52
2021/11/25 02:29:51;;;;;;;5.70;4.37;;;;;;;;;;5022638;28;21095;-53
2021/11/25 02:32:31;;;;;;;4.30;3.90;;;;;;;;;;5006509;28;20346;-54
2021/11/25 02:34:57;;;;;;;4.57;3.90;;;;;;;;;;5016705;28;20181;-53
2021/11/25 02:37:24;;;;;;;5.00;4.17;;;;;;;;;;5016222;28;20663;-53
2021/11/25 02:39:50;;;;;;;5.70;5.07;;;;;;;;;;5022691;28;20184;-52
2021/11/25 02:42:18;;;;;;;6.57;4.97;;;;;;;;;;5003896;28;20672;-52
2021/11/25 02:44:44;;;;;;;6.70;4.73;;;;;;;;;;4986436;28;20619;-53
2021/11/25 02:47:10;;;;;;;4.30;3.90;;;;;;;;;;5023204;28;20652;-53
2021/11/25 02:49:39;;;;;;;6.40;4.90;;;;;;;;;;5024499;28;20263;-54
2021/11/25 02:52:06;;;;;;;5.67;5.07;;;;;;;;;;5022168;28;20181;-54
2021/11/25 02:54:32;;;;;;;5.33;4.13;;;;;;;;;;5023241;28;20189;-52
2021/11/25 02:56:58;;;;;;;6.30;5.30;;;;;;;;;;5022526;28;21121;-53
2021/11/25 02:59:25;;;;;;;5.27;4.77;;;;;;;;;;5004646;28;20181;-53
2021/11/25 03:01:51;;;;;;;5.43;4.77;;;;;;;;;;5021454;28;20178;-52
2021/11/25 03:04:18;;;;;;;4.87;4.37;;;;;;;;;;5006813;28;20201;-53
2021/11/25 03:06:44;;;;;;;6.67;4.93;;;;;;;;;;5004564;28;20187;-54
2021/11/25 03:09:10;;;;;;;4.83;4.10;;;;;;;;;;5021526;28;20644;-52
2021/11/25 03:11:37;;;;;;;5.67;4.63;;;;;;;;;;5022509;28;20544;-52
2021/11/25 03:14:08;;;;;;;5.63;4.60;;;;;;;;;;5025224;28;20186;-52
2021/11/25 03:16:35;;;;;;;5.50;4.77;;;;;;;;;;5022531;28;20193;-53
2021/11/25 03:19:01;;;;;;;5.03;4.53;;;;;;;;;;4991547;28;20190;-52
2021/11/25 03:21:28;;;;;;;4.93;4.43;;;;;;;;;;5003630;28;20193;-51
2021/11/25 03:23:54;;;;;;;5.27;4.63;;;;;;;;;;5003857;28;20209;-54
2021/11/25 03:26:22;;;;;;;5.27;4.77;;;;;;;;;;5023209;28;20404;-53
2021/11/25 03:28:48;;;;;;;6.13;5.07;;;;;;;;;;5021771;28;20431;-52
2021/11/25 03:31:17;;;;;;;5.40;4.90;;;;;;;;;;5018836;28;20751;-54
2021/11/25 03:33:43;;;;;;;6.27;4.90;;;;;;;;;;5024164;28;22046;-52
2021/11/25 03:36:10;;;;;;;5.13;4.50;;;;;;;;;;5022654;28;20227;-54
2021/11/25 03:38:36;;;;;;;5.00;4.47;;;;;;;;;;5021351;28;20183;-53
2021/11/25 03:41:03;;;;;;;5.40;4.90;;;;;;;;;;5027842;28;20190;-52
2021/11/25 03:43:29;;;;;;;5.53;5.00;;;;;;;;;;5005160;28;20206;-54
2021/11/25 03:45:59;;;;;;;6.43;5.70;;;;;;;;;;5020833;28;20174;-52
2021/11/25 03:48:28;;;;;;;6.00;5.40;;;;;;;;;;5024598;28;20707;-52
2021/11/25 03:50:56;;;;;;;6.53;5.50;;;;;;;;;;5018286;28;20182;-54
2021/11/25 03:53:22;;;;;;;5.30;4.80;;;;;;;;;;5021000;28;20243;-53
2021/11/25 03:55:49;;;;;;;6.17;5.57;;;;;;;;;;5002121;28;20206;-55
2021/11/25 03:58:15;;;;;;;5.97;5.30;;;;;;;;;;5019821;28;20189;-53
2021/11/25 04:00:41;;;;;;;6.70;5.50;;;;;;;;;;5001992;28;20192;-52
2021/11/25 04:03:07;;;;;;;5.90;5.30;;;;;;;;;;5021583;28;20281;-54
2021/11/25 04:05:34;;;;;;;5.67;5.00;;;;;;;;;;5015416;28;20187;-52
2021/11/25 04:08:03;;;;;;;5.53;5.03;;;;;;;;;;5020425;28;20320;-53
2021/11/25 04:10:29;;;;;;;6.20;5.33;;;;;;;;;;5019954;28;20186;-54
2021/11/25 04:12:56;;;;;;;7.60;6.17;;;;;;;;;;4989012;28;20182;-53
2021/11/25 04:15:22;;;;;;;6.37;5.47;;;;;;;;;;4985984;28;20201;-53
2021/11/25 04:17:49;;;;;;;6.90;5.57;;;;;;;;;;5019953;28;20281;-53
2021/11/25 04:20:15;;;;;;;6.53;5.43;;;;;;;;;;5007006;28;21211;-53
2021/11/25 04:22:42;;;;;;;5.40;4.90;;;;;;;;;;5020620;28;20205;-52
2021/11/25 04:25:09;;;;;;;6.37;5.77;;;;;;;;;;5020853;28;20177;-52
2021/11/25 04:27:35;;;;;;;7.83;5.53;;;;;;;;;;5003640;28;20235;-54
2021/11/25 04:30:09;;;;;;;5.63;5.13;;;;;;;;;;5002998;28;20186;-55
2021/11/25 04:35:31;;;;;;;6.23;5.63;;;;;;;;;;5022660;28;20196;-53
2021/11/25 04:37:59;;;;;;;5.97;5.37;;;;;;;;;;5001530;28;20280;-54
2021/11/25 04:40:25;;;;;;;6.53;5.73;;;;;;;;;;5001974;28;20177;-54
2021/11/25 04:42:52;;;;;;;6.37;5.67;;;;;;;;;;5018834;28;20245;-54
2021/11/25 04:45:18;;;;;;;5.63;5.13;;;;;;;;;;5002223;28;20185;-54
2021/11/25 04:47:44;;;;;;;7.73;6.23;;;;;;;;;;5000340;28;20663;-53
2021/11/25 04:50:10;;;;;;;6.00;5.07;;;;;;;;;;5000980;28;20178;-53
2021/11/25 04:52:36;;;;;;;5.93;5.33;;;;;;;;;;5000681;28;20980;-54
2021/11/25 04:55:03;;;;;;;7.13;5.77;;;;;;;;;;4982604;28;20191;-55
2021/11/25 04:57:29;;;;;;;6.20;5.60;;;;;;;;;;4981616;28;20244;-54
2021/11/25 04:59:56;;;;;;;5.83;5.27;;;;;;;;;;4981976;28;20444;-55
2021/11/25 05:02:22;;;;;;;5.90;5.40;;;;;;;;;;4980379;28;20194;-54
2021/11/25 05:04:48;;;;;;;6.43;5.83;;;;;;;;;;4983285;28;20266;-52
2021/11/25 05:07:15;;;;;;;7.30;6.07;;;;;;;;;;4983199;28;20182;-52
2021/11/25 05:09:41;;;;;;;7.17;5.77;;;;;;;;;;4984062;28;20281;-53
2021/11/25 05:12:07;;;;;;;7.53;5.53;;;;;;;;;;5004189;28;20212;-53
2021/11/25 05:14:33;;;;;;;6.50;5.90;;;;;;;;;;5004283;28;20201;-53
2021/11/25 05:17:00;;;;;;;6.67;5.80;;;;;;;;;;4985704;28;20182;-52
2021/11/25 05:19:26;;;;;;;5.67;5.17;;;;;;;;;;5003050;28;20229;-55
2021/11/25 05:21:52;;;;;;;6.23;5.63;;;;;;;;;;5008448;28;20182;-53
2021/11/25 05:24:18;;;;;;;6.97;6.03;;;;;;;;;;4986067;28;20210;-53
2021/11/25 05:26:45;;;;;;;6.07;5.47;;;;;;;;;;4985554;28;20321;-52
2021/11/25 05:29:12;;;;;;;6.97;6.30;;;;;;;;;;5001770;28;20277;-53
2021/11/25 05:31:38;;;;;;;6.03;5.20;;;;;;;;;;5001647;28;20221;-53
2021/11/25 05:34:04;;;;;;;6.20;5.43;;;;;;;;;;5009884;28;20190;-52
2021/11/25 05:36:30;;;;;;;6.37;5.77;;;;;;;;;;4993811;28;20314;-52
2021/11/25 05:38:57;;;;;;;7.30;6.20;;;;;;;;;;5011567;28;20760;-53
2021/11/25 05:41:23;;;;;;;6.30;5.43;;;;;;;;;;4993214;28;20564;-52
2021/11/25 05:43:49;;;;;;;6.83;6.13;;;;;;;;;;5011823;28;20214;-53
2021/11/25 05:46:15;;;;;;;6.20;5.70;;;;;;;;;;5010158;28;20214;-52
2021/11/25 05:48:42;;;;;;;6.27;5.50;;;;;;;;;;4992408;28;20233;-53
2021/11/25 05:51:08;;;;;;;7.10;6.40;;;;;;;;;;4990959;28;20270;-52
2021/11/25 05:53:34;;;;;;;5.90;5.23;;;;;;;;;;4992796;28;20285;-53
2021/11/25 05:56:01;;;;;;;7.17;6.37;;;;;;;;;;4992184;28;20202;-52
2021/11/25 05:58:27;;;;;;;7.23;6.53;;;;;;;;;;4993427;28;20634;-53
2021/11/25 06:00:53;;;;;;;6.63;5.93;;;;;;;;;;5008925;28;20183;-54
2021/11/25 06:03:19;;;;;;;6.13;5.53;;;;;;;;;;4990853;28;20613;-52
2021/11/25 06:05:45;;;;;;;7.27;6.00;;;;;;;;;;5010523;28;22432;-52
2021/11/25 06:08:12;;;;;;;6.90;5.70;;;;;;;;;;4991605;28;20649;-52
2021/11/25 06:10:38;;;;;;;5.90;5.33;;;;;;;;;;5006601;28;20190;-53
2021/11/25 06:13:04;;;;;;;6.60;5.97;;;;;;;;;;5002688;28;20186;-53
2021/11/25 06:15:30;;;;;;;6.23;5.67;;;;;;;;;;5008084;28;20589;-53
2021/11/25 06:17:56;;;;;;;7.13;6.00;;;;;;;;;;5005142;28;20210;-53
2021/11/25 06:20:23;;;;;;;7.10;6.10;;;;;;;;;;5007073;28;20309;-54
2021/11/25 06:22:51;;;;;;;8.33;6.30;;;;;;;;;;5010150;28;20672;-53
2021/11/25 06:25:18;;;;;;;6.53;5.93;;;;;;;;;;5006733;28;20215;-53
2021/11/25 06:27:44;;;;;;;8.13;6.63;;;;;;;;;;4996626;28;20594;-53
2021/11/25 06:30:11;;;;;;;6.70;5.70;;;;;;;;;;4986733;28;20587;-52
2021/11/25 06:32:38;;;;;;;7.43;6.73;;;;;;;;;;5008290;28;20224;-53
2021/11/25 06:35:09;;;;;;;5.97;5.37;;;;;;;;;;4992151;28;20681;-52
2021/11/25 06:37:36;;;;;;;7.17;6.27;;;;;;;;;;4991016;28;20187;-51
2021/11/25 06:40:03;;;;;;;7.87;6.37;;;;;;;;;;4989604;28;20273;-53
2021/11/25 06:42:29;;;;;;;6.00;5.37;;;;;;;;;;5005055;28;20871;-52
2021/11/25 06:44:55;;;;;;;7.43;5.83;;;;;;;;;;4982797;28;20265;-55
2021/11/25 06:47:22;;;;;;;8.20;6.50;;;;;;;;;;4989373;28;20193;-52
2021/11/25 06:49:48;;;;;;;8.80;6.13;;;;;;;;;;4989610;28;20226;-53
2021/11/25 06:52:15;;;;;;;7.20;6.53;;;;;;;;;;4991845;28;20560;-52
2021/11/25 06:54:41;;;;;;;7.63;6.53;;;;;;;;;;4988085;28;20232;-53
2021/11/25 06:57:07;;;;;;;8.47;6.87;;;;;;;;;;5006787;28;20194;-53
2021/11/25 06:59:34;;;;;;;8.30;6.43;;;;;;;;;;5007262;28;20187;-54
2021/11/25 07:02:00;;;;;;;7.90;6.33;;;;;;;;;;4988660;28;20185;-53
2021/11/25 07:04:26;;;;;;;7.93;5.93;;;;;;;;;;5005927;28;20198;-51
2021/11/25 07:06:52;;;;;;;7.57;6.43;;;;;;;;;;5000602;28;20455;-53
2021/11/25 07:09:19;;;;;;;7.07;6.37;;;;;;;;;;4984228;28;20183;-53
2021/11/25 07:11:45;;;;;;;7.80;6.77;;;;;;;;;;4997706;28;20183;-52
2021/11/25 07:14:11;;;;;;;8.60;7.00;;;;;;;;;;4992474;28;20212;-53
2021/11/25 07:16:37;;;;;;;7.53;6.80;;;;;;;;;;4991054;28;20240;-54
2021/11/25 07:19:03;;;;;;;8.43;7.27;;;;;;;;;;5005721;28;20990;-55
2021/11/25 07:21:30;;;;;;;9.03;7.43;;;;;;;;;;5002174;28;20194;-53
2021/11/25 07:23:56;;;;;;;8.40;7.60;;;;;;;;;;4983672;28;20305;-54
2021/11/25 07:26:22;;;;;;;11.63;7.57;;;;;;;;;;4997991;28;20207;-53
2021/11/25 07:28:48;;;;;;;9.03;8.13;;;;;;;;;;5003062;28;20206;-54
2021/11/25 07:31:14;;;;;;;10.20;8.33;;;;;;;;;;4997954;28;20182;-52
2021/11/25 07:33:41;;;;;;;9.43;7.83;;;;;;;;;;5001859;28;20197;-53
2021/11/25 07:36:07;;;;;;;8.90;7.53;;;;;;;;;;5000719;28;20182;-53
2021/11/25 07:38:34;;;;;;;9.43;8.13;;;;;;;;;;5002059;28;20437;-53
2021/11/25 07:41:00;;;;;;;11.77;8.83;;;;;;;;;;5000216;28;20493;-53
2021/11/25 07:43:29;;;;;;;9.37;8.37;;;;;;;;;;5004919;28;20537;-53
2021/11/25 07:45:57;;;;;;;9.37;8.23;;;;;;;;;;4983576;28;20429;-53
2021/11/25 07:48:23;;;;;;;8.90;8.00;;;;;;;;;;4990001;28;20476;-54
2021/11/25 07:50:49;;;;;;;10.30;9.10;;;;;;;;;;4978546;28;20240;-54
2021/11/25 07:53:15;;;;;;;11.50;8.30;;;;;;;;;;4986753;28;20523;-52
2021/11/25 07:55:41;;;;;;;12.27;9.07;;;;;;;;;;4984691;28;20460;-53
2021/11/25 07:58:08;;;;;;;9.80;8.87;;;;;;;;;;5000275;28;20433;-54
2021/11/25 08:00:34;;;;;;;9.37;8.47;;;;;;;;;;4966414;28;20441;-53
2021/11/25 08:03:00;;;;;;;9.83;8.67;;;;;;;;;;5000464;28;20496;-53
2021/11/25 08:05:27;;;;;;;9.57;8.67;;;;;;;;;;5004329;28;20273;-53
2021/11/25 08:07:54;;;;;;;10.30;9.13;;;;;;;;;;5000711;28;20743;-52
2021/11/25 08:10:21;;;;;;;11.60;9.23;;;;;;;;;;4981270;28;20217;-53
2021/11/25 08:12:47;;;;;;;10.77;9.67;;;;;;;;;;4982296;28;20897;-53
2021/11/25 08:15:13;;;;;;;10.97;9.10;;;;;;;;;;4997170;28;20956;-52
2021/11/25 08:17:40;;;;;;;9.77;8.67;;;;;;;;;;4985709;28;20429;-53
2021/11/25 08:20:07;;;;;;;10.63;9.57;;;;;;;;;;4988318;28;20440;-53
2021/11/25 08:22:33;;;;;;;13.30;9.70;;;;;;;;;;5006323;28;20191;-52
2021/11/25 08:25:01;;;;;;;10.67;9.57;;;;;;;;;;4990237;28;20421;-54
2021/11/25 08:27:27;;;;;;;10.83;9.57;;;;;;;;;;4990597;28;20440;-53
2021/11/25 08:29:54;;;;;;;11.23;9.27;;;;;;;;;;4999613;28;20256;-53
2021/11/25 08:32:20;;;;;;;13.00;10.77;;;;;;;;;;5000207;28;20257;-54
2021/11/25 08:34:46;;;;;;;15.77;11.63;;;;;;;;;;5004387;28;20975;-53
2021/11/25 08:37:12;;;;;;;14.43;12.00;;;;;;;;;;4999985;28;20495;-52
2021/11/25 08:39:39;;;;;;;18.97;13.03;;;;;;;;;;4990860;28;20181;-53
2021/11/25 08:42:07;;;;;;;14.00;12.50;;;;;;;;;;5000790;28;20846;-53
2021/11/25 08:44:33;;;;;;;14.20;12.77;;;;;;;;;;5004643;28;20531;-52
2021/11/25 08:47:00;;;;;;;15.80;12.57;;;;;;;;;;4972243;28;20186;-55
2021/11/25 08:49:28;;;;;;;13.33;11.93;;;;;;;;;;5022478;28;20502;-53
2021/11/25 08:51:55;;;;;;;14.97;13.10;;;;;;;;;;5027009;28;20239;-54
2021/11/25 08:54:22;;;;;;;14.23;12.20;;;;;;;;;;5007049;28;20209;-53
2021/11/25 08:56:49;;;;;;;12.97;11.53;;;;;;;;;;5006211;28;20372;-52
2021/11/25 08:59:15;;;;;;;19.30;12.13;;;;;;;;;;5023150;28;20821;-55
2021/11/25 09:01:41;;;;;;;14.73;13.10;;;;;;;;;;5022924;28;20178;-56
2021/11/25 09:04:07;;;;;;;14.40;12.00;;;;;;;;;;5004447;28;20448;-55
2021/11/25 09:06:34;;;;;;;14.27;12.77;;;;;;;;;;5025294;28;20428;-54
2021/11/25 09:09:01;;;;;;;16.27;13.27;;;;;;;;;;5024736;28;20471;-53
2021/11/25 09:11:27;;;;;;;15.90;11.57;;;;;;;;;;5023589;28;20883;-53
2021/11/25 09:13:53;;;;;;;15.63;13.13;;;;;;;;;;5005272;28;20282;-53
2021/11/25 09:16:19;;;;;;;17.10;12.87;;;;;;;;;;5022312;28;20925;-54
2021/11/25 09:18:45;;;;;;;18.00;13.47;;;;;;;;;;5023811;28;20601;-54
2021/11/25 09:21:11;;;;;;;14.37;12.30;;;;;;;;;;5012987;28;20439;-53
2021/11/25 09:23:38;;;;;;;14.20;12.57;;;;;;;;;;5024051;28;20491;-55
2021/11/25 09:26:04;;;;;;;16.03;13.40;;;;;;;;;;5023969;28;20178;-53
2021/11/25 09:28:30;;;;;;;14.87;12.03;;;;;;;;;;5001892;28;20208;-53
2021/11/25 09:30:57;;;;;;;15.13;12.97;;;;;;;;;;5024189;28;20190;-53
2021/11/25 09:33:23;;;;;;;15.37;13.13;;;;;;;;;;5023748;28;20440;-54
2021/11/25 09:35:50;;;;;;;18.13;13.70;;;;;;;;;;5005266;28;20186;-54
2021/11/25 09:38:17;;;;;;;15.17;12.93;;;;;;;;;;5024651;28;20667;-56
2021/11/25 09:40:44;;;;;;;15.10;13.50;;;;;;;;;;5023827;28;20181;-52
2021/11/25 09:43:11;;;;;;;16.63;13.70;;;;;;;;;;5013429;28;20491;-54
2021/11/25 09:45:38;;;;;;;18.13;13.70;;;;;;;;;;5006277;28;20177;-52
2021/11/25 09:48:06;;;;;;;15.83;13.50;;;;;;;;;;5021597;28;20550;-52
2021/11/25 09:50:34;;;;;;;18.30;14.17;;;;;;;;;;5018776;28;20186;-52
2021/11/25 09:53:02;;;;;;;16.63;14.00;;;;;;;;;;5025608;28;20240;-53
2021/11/25 09:55:29;;;;;;;17.63;15.10;;;;;;;;;;5006178;28;20178;-52
2021/11/25 09:57:56;;;;;;;18.60;14.97;;;;;;;;;;5024829;28;20444;-51
2021/11/25 10:00:23;;;;;;;17.27;13.73;;;;;;;;;;5019166;28;20189;-52
2021/11/25 10:02:49;;;;;;;16.47;14.70;;;;;;;;;;5022791;28;20202;-54
2021/11/25 10:05:15;;;;;;;16.53;14.83;;;;;;;;;;5005391;28;20656;-52
2021/11/25 10:07:45;;;;;;;16.43;14.63;;;;;;;;;;5005752;28;20671;-55
2021/11/25 10:10:27;;;;;;;16.70;14.60;;;;;;;;;;5025883;28;20825;-54
2021/11/25 10:13:02;;;;;;;16.97;15.20;;;;;;;;;;5022941;28;20197;-53
2021/11/25 10:15:38;;;;;;;18.37;16.03;;;;;;;;;;5021199;28;20201;-55
2021/11/25 10:18:11;;;;;;;16.63;14.40;;;;;;;;;;5024715;28;20189;-52
2021/11/25 10:20:41;;;;;;;17.07;15.27;;;;;;;;;;5023232;28;20186;-52
2021/11/25 10:23:13;;;;;;;18.60;15.73;;;;;;;;;;5023956;28;20519;-53
2021/11/25 10:25:45;;;;;;;18.93;15.83;;;;;;;;;;5006290;28;20648;-53
2021/11/25 10:28:20;;;;;;;17.47;15.17;;;;;;;;;;5023980;28;20717;-53
2021/11/25 10:30:46;;;;;;;19.13;16.00;;;;;;;;;;5021969;28;20424;-54
2021/11/25 10:33:12;;;;;;;22.20;15.53;;;;;;;;;;5021254;28;20181;-53
2021/11/25 10:40:42;;;;;;;19.13;15.40;;;;;;;;;;5025113;28;20197;-53
2021/11/25 10:43:24;;;;;;;18.47;16.43;;;;;;;;;;5010137;28;21900;-53
2021/11/25 10:45:53;;;;;;;19.33;16.10;;;;;;;;;;5023365;28;20186;-54
2021/11/25 10:48:28;;;;;;;19.50;16.17;;;;;;;;;;5025468;28;20304;-55
2021/11/25 10:50:54;;;;;;;20.10;16.93;;;;;;;;;;5027192;28;20192;-54
2021/11/25 10:53:20;;;;;;;20.00;16.90;;;;;;;;;;5023661;28;20192;-53
2021/11/25 10:55:46;;;;;;;19.63;17.00;;;;;;;;;;5023631;28;20203;-53
2021/11/25 10:58:13;;;;;;;20.20;17.33;;;;;;;;;;5018598;28;20240;-55
2021/11/25 11:00:41;;;;;;;21.07;17.27;;;;;;;;;;5017338;28;20181;-52
2021/11/25 11:03:12;;;;;;;22.10;17.40;;;;;;;;;;5021205;28;20260;-54
2021/11/25 11:05:48;;;;;;;20.50;17.20;;;;;;;;;;5008411;28;20552;-54
2021/11/25 11:08:15;;;;;;;22.50;19.00;;;;;;;;;;5025105;28;20632;-53
2021/11/25 11:10:51;;;;;;;24.57;17.63;;;;;;;;;;5004210;28;20535;-55
2021/11/25 11:19:01;;;;;;;19.03;16.93;;;;;;;;;;5021861;28;20645;-53
2021/11/25 11:21:39;;;;;;;18.97;16.77;;;;;;;;;;4993402;28;20190;-53
2021/11/25 11:24:16;;;;;;;22.00;18.30;;;;;;;;;;5021875;28;20668;-53
2021/11/25 11:26:47;;;;;;;20.77;17.70;;;;;;;;;;5021270;28;20336;-53
2021/11/25 11:29:14;;;;;;;19.17;16.57;;;;;;;;;;5008670;28;20186;-54
2021/11/25 11:31:41;;;;;;;21.67;18.30;;;;;;;;;;5029341;28;20242;-53
2021/11/25 11:34:09;;;;;;;19.77;17.60;;;;;;;;;;5029823;28;20190;-54
2021/11/25 11:36:37;;;;;;;19.07;17.20;;;;;;;;;;5026980;28;20268;-53
2021/11/25 11:39:04;;;;;;;17.93;16.03;;;;;;;;;;5027976;28;20637;-53
2021/11/25 11:41:32;;;;;;;21.27;18.20;;;;;;;;;;5024259;28;20182;-55
2021/11/25 11:44:02;;;;;;;21.77;17.97;;;;;;;;;;5024790;28;20412;-54
2021/11/25 11:46:29;;;;;;;22.27;18.47;;;;;;;;;;5021421;28;20200;-55
2021/11/25 11:48:57;;;;;;;22.70;19.00;;;;;;;;;;5025548;28;20680;-52
2021/11/25 11:51:23;;;;;;;20.67;17.43;;;;;;;;;;5024420;28;20515;-52
2021/11/25 11:53:57;;;;;;;23.00;17.87;;;;;;;;;;5011295;28;20662;-51
2021/11/25 11:56:41;;;;;;;20.97;18.20;;;;;;;;;;5021570;28;20205;-54
2021/11/25 11:59:09;;;;;;;23.50;19.87;;;;;;;;;;5020811;28;20501;-54
2021/11/25 12:01:35;;;;;;;21.53;19.23;;;;;;;;;;5019662;28;20185;-53
2021/11/25 12:04:11;;;;;;;21.33;18.90;;;;;;;;;;5002443;28;20213;-53
2021/11/25 12:06:45;;;;;;;22.40;18.30;;;;;;;;;;5019789;28;20644;-52
2021/11/25 12:09:20;;;;;;;23.47;18.87;;;;;;;;;;5004026;28;20235;-52
2021/11/25 12:11:55;;;;;;;20.67;18.43;;;;;;;;;;5012367;28;20644;-52
2021/11/25 12:14:22;;;;;;;21.37;17.57;;;;;;;;;;5004827;28;20188;-53
2021/11/25 12:16:56;;;;;;;21.00;18.00;;;;;;;;;;5019798;28;20186;-53
2021/11/25 12:19:23;;;;;;;24.87;19.20;;;;;;;;;;5020943;28;20194;-53
2021/11/25 12:21:50;;;;;;;21.03;18.63;;;;;;;;;;5020953;28;20649;-54
2021/11/25 12:24:26;;;;;;;24.67;18.13;;;;;;;;;;5020918;28;20599;-53
2021/11/25 12:26:55;;;;;;;22.70;19.70;;;;;;;;;;5019721;28;20201;-53
2021/11/25 12:29:34;;;;;;;22.30;19.90;;;;;;;;;;5020108;28;20182;-53
2021/11/25 12:35:14;;;;;;;26.07;19.73;;;;;;;;;;5007646;28;20530;-55
2021/11/25 12:37:43;;;;;;;24.23;19.67;;;;;;;;;;5020843;28;20197;-53
2021/11/25 12:40:15;;;;;;;24.10;20.53;;;;;;;;;;5019494;28;20735;-54
2021/11/25 12:42:42;;;;;;;22.87;19.17;;;;;;;;;;5002740;28;20645;-52
2021/11/25 12:45:25;;;;;;;21.87;18.60;;;;;;;;;;5019263;28;20205;-54
2021/11/25 12:48:08;;;;;;;25.40;19.77;;;;;;;;;;5014998;28;20222;-52
2021/11/25 12:50:50;;;;;;;26.07;21.23;;;;;;;;;;5019868;28;20196;-54
2021/11/25 12:53:26;;;;;;;24.27;20.40;;;;;;;;;;5020256;28;20529;-53
2021/11/25 12:56:03;;;;;;;22.03;18.53;;;;;;;;;;5019631;28;20289;-53
2021/11/25 12:58:30;;;;;;;23.60;18.70;;;;;;;;;;4998622;28;20221;-54
2021/11/25 13:00:56;;;;;;;22.53;19.53;;;;;;;;;;5012999;28;20726;-53
2021/11/25 13:03:22;;;;;;;25.23;21.23;;;;;;;;;;4999531;28;20216;-53
2021/11/25 13:05:50;;;;;;;23.73;20.53;;;;;;;;;;5020567;28;20238;-54
2021/11/25 13:08:30;;;;;;;24.07;20.87;;;;;;;;;;5005053;28;20174;-53
2021/11/25 13:10:57;;;;;;;25.73;20.63;;;;;;;;;;5014108;28;20649;-52
2021/11/25 13:13:25;;;;;;;26.73;22.10;;;;;;;;;;5005361;28;20564;-55
2021/11/25 13:16:00;;;;;;;23.43;20.90;;;;;;;;;;5018986;28;20182;-54
2021/11/25 13:18:44;;;;;;;25.33;21.13;;;;;;;;;;5002046;28;20230;-53
2021/11/25 13:21:33;;;;;;;24.70;20.60;;;;;;;;;;5018094;28;20276;-56
2021/11/25 13:24:08;;;;;;;26.20;21.43;;;;;;;;;;5011868;28;20221;-54
2021/11/25 13:26:46;;;;;;;26.37;21.17;;;;;;;;;;5001253;28;20185;-52
2021/11/25 13:29:13;;;;;;;25.20;20.60;;;;;;;;;;5019752;28;20223;-54
2021/11/25 13:31:40;;;;;;;26.17;21.40;;;;;;;;;;5022814;28;20314;-55
2021/11/25 13:34:06;;;;;;;24.93;20.20;;;;;;;;;;5024491;28;20314;-54
2021/11/25 13:36:52;;;;;;;25.47;20.93;;;;;;;;;;5005405;28;20210;-55
2021/11/25 13:39:20;;;;;;;25.53;20.57;;;;;;;;;;5024760;28;20723;-54
2021/11/25 13:41:47;;;;;;;25.80;20.97;;;;;;;;;;5021743;28;20749;-55
2021/11/25 13:44:14;;;;;;;25.47;21.80;;;;;;;;;;5024778;28;20206;-53
2021/11/25 13:46:49;;;;;;;28.17;21.87;;;;;;;;;;5024342;28;20209;-53
2021/11/25 13:49:16;;;;;;;24.60;21.07;;;;;;;;;;5023316;28;20399;-53
2021/11/25 13:51:43;;;;;;;26.17;21.40;;;;;;;;;;5004135;28;20785;-53
2021/11/25 13:54:17;;;;;;;26.63;22.50;;;;;;;;;;5022168;28;20251;-53
2021/11/25 13:56:44;;;;;;;25.80;21.37;;;;;;;;;;5023121;28;20209;-55
2021/11/25 13:59:11;;;;;;;28.07;22.17;;;;;;;;;;5024228;28;20182;-53
2021/11/25 14:01:38;;;;;;;26.07;21.73;;;;;;;;;;5005066;28;20189;-52
2021/11/25 14:04:05;;;;;;;26.97;21.80;;;;;;;;;;5017198;28;20210;-53
2021/11/25 14:06:35;;;;;;;26.90;21.43;;;;;;;;;;5004730;28;20601;-53
2021/11/25 14:09:06;;;;;;;26.50;21.77;;;;;;;;;;5005112;28;20188;-53
2021/11/25 14:11:33;;;;;;;25.97;22.10;;;;;;;;;;5023992;28;20577;-53
2021/11/25 14:14:04;;;;;;;26.83;22.60;;;;;;;;;;5019048;28;20177;-53
2021/11/25 14:16:31;;;;;;;28.53;21.50;;;;;;;;;;5028140;28;20320;-54
2021/11/25 14:19:10;;;;;;;25.53;22.07;;;;;;;;;;5024317;28;20584;-53
2021/11/25 14:21:39;;;;;;;24.87;21.57;;;;;;;;;;5022167;28;20186;-54
2021/11/25 14:24:09;;;;;;;25.83;21.73;;;;;;;;;;5021879;28;20212;-53
2021/11/25 14:27:02;;;;;;;23.93;21.20;;;;;;;;;;5022518;28;20575;-53
2021/11/25 14:32:47;;;;;;;25.30;20.83;;;;;;;;;;5022919;28;20188;-53
2021/11/25 14:35:38;;;;;;;26.50;21.37;;;;;;;;;;5015375;28;20466;-54
2021/11/25 14:38:12;;;;;;;24.77;21.23;;;;;;;;;;5014423;28;20713;-55
2021/11/25 14:40:39;;;;;;;26.97;21.10;;;;;;;;;;5013719;28;20180;-55
2021/11/25 14:43:09;;;;;;;27.67;22.40;;;;;;;;;;5020925;28;20297;-52
2021/11/25 14:45:36;;;;;;;26.83;22.53;;;;;;;;;;5020837;28;20513;-52
2021/11/25 14:48:05;;;;;;;25.83;22.73;;;;;;;;;;5000222;28;20307;-53
2021/11/25 14:50:31;;;;;;;26.20;23.20;;;;;;;;;;4989003;28;20182;-53
2021/11/25 14:53:18;;;;;;;25.53;21.43;;;;;;;;;;5009925;28;20604;-52
2021/11/25 14:55:52;;;;;;;27.53;21.83;;;;;;;;;;5006262;28;20213;-52